createdAt,value
2019-05-02T00:01:21.940Z,112.03
2019-05-02T00:03:51.292Z,119.97
2019-05-02T00:06:21.115Z,114.27
2019-05-02T00:08:50.731Z,119.63
2019-05-02T00:11:21.604Z,135.03
2019-05-02T00:13:51.026Z,126.63
2019-05-02T00:16:20.467Z,124.27
2019-05-02T00:18:49.831Z,128.83
2019-05-02T00:21:19.598Z,134.80
2019-05-02T00:23:49.332Z,119.10
2019-05-02T00:26:18.674Z,126.83
2019-05-02T00:28:49.866Z,114.60
2019-05-02T00:31:21.930Z,122.13
2019-05-02T00:33:51.273Z,120.13
2019-05-02T00:36:20.611Z,112.10
2019-05-02T00:38:49.978Z,116.27
2019-05-02T00:41:20.911Z,132.20
2019-05-02T00:43:50.297Z,119.47
2019-05-02T00:46:19.712Z,113.93
2019-05-02T00:48:59.516Z,116.17
2019-05-02T00:51:26.803Z,116.20
2019-05-02T00:53:56.312Z,113.77
2019-05-02T00:56:26.621Z,108.07
2019-05-02T00:58:56.490Z,115.33
2019-05-02T01:01:47.400Z,112.80
2019-05-02T01:04:27.655Z,109.43
2019-05-02T01:06:54.429Z,117.00
2019-05-02T01:09:23.796Z,98.27
2019-05-02T01:11:53.278Z,106.97
2019-05-02T01:14:22.640Z,110.73
2019-05-02T01:16:54.276Z,117.90
2019-05-02T01:19:23.020Z,108.13
2019-05-02T01:21:52.297Z,115.20
2019-05-02T01:24:21.661Z,108.20
2019-05-02T01:27:04.643Z,102.43
2019-05-02T01:29:39.728Z,114.80
2019-05-02T01:32:25.239Z,107.73
2019-05-02T01:35:01.632Z,113.27
2019-05-02T01:37:54.806Z,104.30
2019-05-02T01:40:23.777Z,104.80
2019-05-02T01:42:56.284Z,103.87
2019-05-02T01:45:25.652Z,102.33
2019-05-02T01:47:54.949Z,99.40
2019-05-02T01:50:24.286Z,102.97
2019-05-02T01:52:58.106Z,104.77
2019-05-02T01:55:24.750Z,112.40
2019-05-02T01:57:54.097Z,120.07
2019-05-02T02:00:23.315Z,102.67
2019-05-02T02:02:52.730Z,107.33
2019-05-02T02:05:22.104Z,110.33
2019-05-02T02:07:55.548Z,100.33
2019-05-02T02:10:22.886Z,122.03
2019-05-02T02:13:03.690Z,101.57
2019-05-02T02:15:25.094Z,99.97
2019-05-02T02:17:54.283Z,104.07
2019-05-02T02:20:25.447Z,92.63
2019-05-02T02:23:02.738Z,105.43
2019-05-02T02:25:45.592Z,104.37
2019-05-02T02:28:14.897Z,105.50
2019-05-02T02:30:44.393Z,80.07
2019-05-02T02:33:13.749Z,101.53
2019-05-02T02:35:49.573Z,92.20
2019-05-02T02:38:14.144Z,110.07
2019-05-02T02:40:43.429Z,98.97
2019-05-02T02:43:32.442Z,93.33
2019-05-02T02:46:07.011Z,92.63
2019-05-02T02:48:40.539Z,82.43
2019-05-02T02:51:07.871Z,93.87
2019-05-02T02:53:37.194Z,85.43
2019-05-02T02:56:07.756Z,91.93
2019-05-02T02:58:45.659Z,99.53
2019-05-02T03:01:08.804Z,99.57
2019-05-02T03:03:38.182Z,102.77
2019-05-02T03:06:08.288Z,94.27
2019-05-02T03:08:46.632Z,101.77
2019-05-02T03:11:22.316Z,96.00
2019-05-02T03:14:09.738Z,94.43
2019-05-02T03:16:46.035Z,101.33
2019-05-02T03:19:14.616Z,93.80
2019-05-02T03:21:54.269Z,99.30
2019-05-02T03:24:26.389Z,90.47
2019-05-02T03:26:58.408Z,91.63
2019-05-02T03:29:39.717Z,89.10
2019-05-02T03:32:25.968Z,95.17
2019-05-02T03:34:45.309Z,99.07
2019-05-02T03:37:03.081Z,94.57
2019-05-02T03:39:31.721Z,98.23
2019-05-02T03:42:03.000Z,106.53
2019-05-02T03:44:32.291Z,111.77
2019-05-02T03:47:04.487Z,111.33
2019-05-02T03:49:32.697Z,112.90
2019-05-02T03:52:03.659Z,107.67
2019-05-02T03:54:33.043Z,106.90
2019-05-02T03:57:02.658Z,117.00
2019-05-02T03:59:38.964Z,109.17
2019-05-02T04:02:03.006Z,117.27
2019-05-02T04:04:32.619Z,106.47
2019-05-02T04:07:03.475Z,104.63
2019-05-02T04:09:38.719Z,102.10
2019-05-02T04:12:11.694Z,106.07
2019-05-02T04:14:38.903Z,107.90
2019-05-02T04:17:10.650Z,109.60
2019-05-02T04:19:40.604Z,108.30
2019-05-02T04:22:11.940Z,106.90
2019-05-02T04:24:47.918Z,97.33
2019-05-02T04:27:13.839Z,88.63
2019-05-02T04:29:43.419Z,111.63
2019-05-02T04:32:14.543Z,100.43
2019-05-02T04:34:48.846Z,103.03
2019-05-02T04:37:14.804Z,110.50
2019-05-02T04:39:44.127Z,109.33
2019-05-02T04:42:19.615Z,124.63
2019-05-02T04:45:08.801Z,133.50
2019-05-02T04:47:20.678Z,128.90
2019-05-02T04:49:51.339Z,116.37
2019-05-02T04:52:21.006Z,115.27
2019-05-02T04:54:48.942Z,137.80
2019-05-02T04:57:18.927Z,123.13
2019-05-02T04:59:50.615Z,124.37
2019-05-02T05:02:21.187Z,115.83
2019-05-02T05:04:50.727Z,127.20
2019-05-02T05:07:20.116Z,111.10
2019-05-02T05:09:57.139Z,117.63
2019-05-02T05:12:20.489Z,107.60
2019-05-02T05:14:52.720Z,116.23
2019-05-02T05:17:25.132Z,116.03
2019-05-02T05:19:53.209Z,116.07
2019-05-02T05:22:22.640Z,105.40
2019-05-02T05:25:01.627Z,117.77
2019-05-02T05:27:41.538Z,110.30
2019-05-02T05:30:15.501Z,106.40
2019-05-02T05:32:42.406Z,101.30
2019-05-02T05:35:12.960Z,107.97
2019-05-02T05:37:43.239Z,105.17
2019-05-02T05:40:13.403Z,101.77
2019-05-02T05:42:42.804Z,116.80
2019-05-02T05:45:13.980Z,113.37
2019-05-02T05:47:43.308Z,101.20
2019-05-02T05:50:12.827Z,110.03
2019-05-02T05:52:43.257Z,107.43
2019-05-02T05:55:17.126Z,107.67
2019-05-02T05:57:44.158Z,98.50
2019-05-02T06:00:18.669Z,92.00
2019-05-02T06:02:53.890Z,99.87
2019-05-02T06:05:17.469Z,99.60
2019-05-02T06:07:47.435Z,98.93
2019-05-02T06:10:17.294Z,92.27
2019-05-02T06:12:46.697Z,107.93
2019-05-02T06:15:16.020Z,90.83
2019-05-02T06:17:45.462Z,100.03
2019-05-02T06:20:15.041Z,112.33
2019-05-02T06:22:44.352Z,106.77
2019-05-02T06:25:14.243Z,108.30
2019-05-02T06:27:43.549Z,98.93
2019-05-02T06:30:13.315Z,101.83
2019-05-02T06:32:42.620Z,106.83
2019-05-02T06:35:17.173Z,91.80
2019-05-02T06:37:50.089Z,100.00
2019-05-02T06:40:17.303Z,109.57
2019-05-02T06:42:46.704Z,110.63
2019-05-02T06:45:16.217Z,107.40
2019-05-02T06:47:45.629Z,88.33
2019-05-02T06:50:15.404Z,103.63
2019-05-02T06:52:44.684Z,96.20
2019-05-02T06:55:14.045Z,96.33
2019-05-02T06:57:43.307Z,95.00
2019-05-02T07:00:13.312Z,102.80
2019-05-02T07:02:42.638Z,90.00
2019-05-02T07:05:12.073Z,101.77
2019-05-02T07:07:42.499Z,107.87
2019-05-02T07:10:12.149Z,95.40
2019-05-02T07:12:41.475Z,101.37
2019-05-02T07:15:25.882Z,100.50
2019-05-02T07:17:59.142Z,97.90
2019-05-02T07:20:28.816Z,86.37
2019-05-02T07:22:58.160Z,100.03
2019-05-02T07:25:27.569Z,100.50
2019-05-02T07:27:56.889Z,97.63
2019-05-02T07:30:30.023Z,88.93
2019-05-02T07:33:01.214Z,91.93
2019-05-02T07:35:28.293Z,96.83
2019-05-02T07:37:57.624Z,91.20
2019-05-02T07:40:26.956Z,96.53
2019-05-02T07:42:58.588Z,100.30
2019-05-02T07:45:30.981Z,94.53
2019-05-02T07:48:01.586Z,90.73
2019-05-02T07:50:31.112Z,90.20
2019-05-02T07:53:04.453Z,91.73
2019-05-02T07:55:35.328Z,88.30
2019-05-02T07:58:06.971Z,89.50
2019-05-02T08:00:37.098Z,91.13
2019-05-02T08:03:17.465Z,92.57
2019-05-02T08:05:46.952Z,83.60
2019-05-02T08:08:16.301Z,92.83
2019-05-02T08:10:45.740Z,96.50
2019-05-02T08:13:17.578Z,85.53
2019-05-02T08:15:50.910Z,87.17
2019-05-02T08:18:18.810Z,91.03
2019-05-02T08:20:50.940Z,88.80
2019-05-02T08:23:20.647Z,91.07
2019-05-02T08:25:50.670Z,90.27
2019-05-02T08:28:28.925Z,91.20
2019-05-02T08:30:58.830Z,81.60
2019-05-02T08:33:29.110Z,80.63
2019-05-02T08:35:59.235Z,77.80
2019-05-02T08:38:28.504Z,101.83
2019-05-02T08:40:57.800Z,82.73
2019-05-02T08:43:27.223Z,90.77
2019-05-02T08:45:56.605Z,95.63
2019-05-02T08:48:25.950Z,91.40
2019-05-02T08:50:55.246Z,84.70
2019-05-02T08:53:24.474Z,86.87
2019-05-02T08:55:53.860Z,82.47
2019-05-02T08:58:23.907Z,88.80
2019-05-02T09:00:53.222Z,77.13
2019-05-02T09:03:23.148Z,90.37
2019-05-02T09:06:04.959Z,82.53
2019-05-02T09:08:23.643Z,78.20
2019-05-02T09:10:53.069Z,78.17
2019-05-02T09:13:26.479Z,71.93
2019-05-02T09:15:54.305Z,88.97
2019-05-02T09:18:30.085Z,82.93
2019-05-02T09:20:56.566Z,77.70
2019-05-02T09:23:27.527Z,78.77
2019-05-02T09:25:57.331Z,77.50
2019-05-02T09:28:26.633Z,72.33
2019-05-02T09:30:57.379Z,70.27
2019-05-02T09:33:27.020Z,63.63
2019-05-02T09:35:56.341Z,87.60
2019-05-02T09:38:25.704Z,73.70
2019-05-02T09:40:56.286Z,80.20
2019-05-02T09:43:29.357Z,72.47
2019-05-02T09:45:56.813Z,83.83
2019-05-02T09:48:26.977Z,73.37
2019-05-02T09:50:58.080Z,77.97
2019-05-02T09:53:27.736Z,65.67
2019-05-02T09:55:58.063Z,70.03
2019-05-02T09:58:27.391Z,59.43
2019-05-02T10:01:02.732Z,67.00
2019-05-02T10:03:33.032Z,68.13
2019-05-02T10:06:03.186Z,72.83
2019-05-02T10:08:32.767Z,63.13
2019-05-02T10:11:02.958Z,63.80
2019-05-02T10:13:33.658Z,50.73
2019-05-02T10:16:02.953Z,49.17
2019-05-02T10:18:32.978Z,57.80
2019-05-02T10:21:03.141Z,52.77
2019-05-02T10:23:32.709Z,52.93
2019-05-02T10:26:02.856Z,50.70
2019-05-02T10:28:32.419Z,50.50
2019-05-02T10:31:02.305Z,59.93
2019-05-02T10:33:35.828Z,55.20
2019-05-02T10:36:03.384Z,52.53
2019-05-02T10:38:36.436Z,54.10
2019-05-02T10:41:05.844Z,54.97
2019-05-02T10:43:35.234Z,54.37
2019-05-02T10:46:12.555Z,50.80
2019-05-02T10:48:47.401Z,51.63
2019-05-02T10:51:35.428Z,52.00
2019-05-02T10:54:08.160Z,52.53
2019-05-02T10:56:37.496Z,47.27
2019-05-02T10:59:06.895Z,52.30
2019-05-02T11:01:55.121Z,45.37
2019-05-02T11:04:29.189Z,47.73
2019-05-02T11:06:56.815Z,44.40
2019-05-02T11:09:26.578Z,47.13
2019-05-02T11:11:56.084Z,36.63
2019-05-02T11:14:37.415Z,37.63
2019-05-02T11:17:17.458Z,50.90
2019-05-02T11:19:54.322Z,34.10
2019-05-02T11:22:23.621Z,38.03
2019-05-02T11:24:52.995Z,30.77
2019-05-02T11:27:22.335Z,40.90
2019-05-02T11:29:52.617Z,38.27
2019-05-02T11:32:24.608Z,32.83
2019-05-02T11:34:53.924Z,35.30
2019-05-02T11:37:23.185Z,33.80
2019-05-02T11:39:58.340Z,36.93
2019-05-02T11:42:27.178Z,38.70
2019-05-02T11:44:54.694Z,44.03
2019-05-02T11:47:26.550Z,42.20
2019-05-02T11:49:56.007Z,35.53
2019-05-02T11:52:27.551Z,35.67
2019-05-02T11:54:56.690Z,38.93
2019-05-02T11:57:28.468Z,37.13
2019-05-02T11:59:59.379Z,34.20
2019-05-02T12:02:49.142Z,37.40
2019-05-02T12:05:22.086Z,37.67
2019-05-02T12:07:52.640Z,36.60
2019-05-02T12:10:22.247Z,37.30
2019-05-02T12:12:52.689Z,36.90
2019-05-02T12:15:22.092Z,40.17
2019-05-02T12:17:51.690Z,41.07
2019-05-02T12:20:22.747Z,46.80
2019-05-02T12:22:52.779Z,40.63
2019-05-02T12:25:22.403Z,40.30
2019-05-02T12:27:52.689Z,53.20
2019-05-02T12:30:23.976Z,41.17
2019-05-02T12:32:53.653Z,44.03
2019-05-02T12:35:23.102Z,41.57
2019-05-02T12:37:55.211Z,48.40
2019-05-02T12:40:23.445Z,47.13
2019-05-02T12:42:53.238Z,45.37
2019-05-02T12:45:22.623Z,45.93
2019-05-02T12:47:52.345Z,46.83
2019-05-02T12:50:22.576Z,49.50
2019-05-02T12:52:52.491Z,51.57
2019-05-02T12:55:24.565Z,48.70
2019-05-02T12:57:53.885Z,46.63
2019-05-02T13:00:23.194Z,50.67
2019-05-02T13:03:14.520Z,51.90
2019-05-02T13:05:42.643Z,48.73
2019-05-02T13:08:12.414Z,55.17
2019-05-02T13:11:02.163Z,51.90
2019-05-02T13:13:28.134Z,53.33
2019-05-02T13:16:00.586Z,58.50
2019-05-02T13:18:34.618Z,53.00
2019-05-02T13:21:02.206Z,64.20
2019-05-02T13:23:49.209Z,48.73
2019-05-02T13:26:22.921Z,61.60
2019-05-02T13:28:51.611Z,52.63
2019-05-02T13:31:32.042Z,51.93
2019-05-02T13:34:14.827Z,59.47
2019-05-02T13:36:47.257Z,57.93
2019-05-02T13:39:35.508Z,55.40
2019-05-02T13:42:04.853Z,55.63
2019-05-02T13:44:37.055Z,58.60
2019-05-02T13:47:09.770Z,62.70
2019-05-02T13:49:52.887Z,74.93
2019-05-02T13:52:11.780Z,74.63
2019-05-02T13:54:42.642Z,69.37
2019-05-02T13:57:12.314Z,74.43
2019-05-02T13:59:41.801Z,78.70
2019-05-02T14:02:31.874Z,76.40
2019-05-02T14:05:02.436Z,79.40
2019-05-02T14:07:32.632Z,79.77
2019-05-02T14:10:06.037Z,77.70
2019-05-02T14:12:52.869Z,81.93
2019-05-02T14:15:25.132Z,75.77
2019-05-02T14:17:54.388Z,80.60
2019-05-02T14:20:23.964Z,79.40
2019-05-02T14:22:53.319Z,88.77
2019-05-02T14:25:22.716Z,88.07
2019-05-02T14:27:55.465Z,81.03
2019-05-02T14:30:35.961Z,82.73
2019-05-02T14:32:57.387Z,88.07
2019-05-02T14:35:32.593Z,89.03
2019-05-02T14:38:13.371Z,93.07
2019-05-02T14:41:05.287Z,87.73
2019-05-02T14:43:53.604Z,82.70
2019-05-02T14:46:34.031Z,85.47
2019-05-02T14:48:57.356Z,69.30
2019-05-02T14:51:27.833Z,46.30
2019-05-02T14:54:02.560Z,47.10
2019-05-02T14:56:56.479Z,50.13
2019-05-02T14:59:28.685Z,56.50
2019-05-02T15:02:03.898Z,19.03
2019-05-02T15:04:32.142Z,12.90
2019-05-02T15:07:02.064Z,8.53
2019-05-02T15:09:32.716Z,10.50
2019-05-02T15:12:03.694Z,8.33
2019-05-02T15:14:35.034Z,11.23
2019-05-02T15:17:04.961Z,10.67
2019-05-02T15:19:34.326Z,18.43
2019-05-02T15:22:04.189Z,20.93
2019-05-02T15:24:37.601Z,18.90
2019-05-02T15:27:12.209Z,22.10
2019-05-02T15:29:35.575Z,22.53
2019-05-02T15:32:37.272Z,22.77
2019-05-02T15:35:17.802Z,20.10
2019-05-02T15:37:46.287Z,22.63
2019-05-02T15:42:56.660Z,26.80
2019-05-02T15:45:24.181Z,28.13
2019-05-02T15:47:53.587Z,24.63
2019-05-02T15:50:25.572Z,27.53
2019-05-02T15:53:03.212Z,28.33
2019-05-02T15:55:32.391Z,23.53
2019-05-02T15:58:02.573Z,37.97
2019-05-02T16:00:35.988Z,25.73
2019-05-02T16:03:05.637Z,26.93
2019-05-02T16:05:36.689Z,30.30
2019-05-02T16:08:08.957Z,29.40
2019-05-02T16:10:38.762Z,30.97
2019-05-02T16:13:15.738Z,32.80
2019-05-02T16:15:40.233Z,32.57
2019-05-02T16:18:10.123Z,33.57
2019-05-02T16:21:01.575Z,33.20
2019-05-02T16:23:29.649Z,34.37
2019-05-02T16:25:52.365Z,31.80
2019-05-02T16:28:21.869Z,32.37
2019-05-02T16:30:53.144Z,32.10
2019-05-02T16:33:22.824Z,37.77
2019-05-02T16:35:54.462Z,32.20
2019-05-02T16:38:26.727Z,36.70
2019-05-02T16:40:57.221Z,35.00
2019-05-02T16:43:28.659Z,40.43
2019-05-02T16:45:58.016Z,34.97
2019-05-02T16:48:32.396Z,114.73
2019-05-02T16:50:58.259Z,187.23
2019-05-02T16:53:27.591Z,34.43
2019-05-02T16:55:58.515Z,39.07
2019-05-02T16:58:31.896Z,47.17
2019-05-02T17:00:59.509Z,38.70
2019-05-02T17:03:31.496Z,32.43
2019-05-02T17:06:01.751Z,31.53
2019-05-02T17:08:57.169Z,34.43
2019-05-02T17:11:27.809Z,31.23
2019-05-02T17:13:56.428Z,37.47
2019-05-02T17:16:26.153Z,30.20
2019-05-02T17:18:56.637Z,31.03
2019-05-02T17:21:26.776Z,33.03
2019-05-02T17:23:57.249Z,33.03
2019-05-02T17:26:26.689Z,33.80
2019-05-02T17:28:56.025Z,32.90
2019-05-02T17:31:25.794Z,30.07
2019-05-02T17:33:55.149Z,30.13
2019-05-02T17:36:28.402Z,35.20
2019-05-02T17:39:06.257Z,36.10
2019-05-02T17:41:37.065Z,35.17
2019-05-02T17:44:06.039Z,29.83
2019-05-02T17:46:42.837Z,29.73
2019-05-02T17:49:12.409Z,35.10
2019-05-02T17:52:05.770Z,38.80
2019-05-02T17:54:31.747Z,32.67
2019-05-02T17:57:02.193Z,35.33
2019-05-02T17:59:34.647Z,40.83
2019-05-02T18:02:06.628Z,41.13
2019-05-02T18:04:35.547Z,33.60
2019-05-02T18:07:04.827Z,36.60
2019-05-02T18:09:35.160Z,35.77
2019-05-02T18:12:07.099Z,39.80
2019-05-02T18:14:35.897Z,35.63
2019-05-02T18:17:05.512Z,36.83
2019-05-02T18:19:34.943Z,37.60
2019-05-02T18:22:08.325Z,36.73
2019-05-02T18:24:37.459Z,38.90
2019-05-02T18:27:06.941Z,36.80
2019-05-02T18:29:41.588Z,35.70
2019-05-02T18:32:08.283Z,44.13
2019-05-02T18:34:37.666Z,38.70
2019-05-02T18:37:07.312Z,37.87
2019-05-02T18:39:44.752Z,39.83
2019-05-02T18:42:08.153Z,40.13
2019-05-02T18:44:37.394Z,40.37
2019-05-02T18:47:06.912Z,43.20
2019-05-02T18:49:37.219Z,37.93
2019-05-02T18:52:06.612Z,37.40
2019-05-02T18:54:38.606Z,38.63
2019-05-02T18:57:11.808Z,37.97
2019-05-02T18:59:39.619Z,39.37
2019-05-02T19:02:10.818Z,43.67
2019-05-02T19:04:42.341Z,41.40
2019-05-02T19:07:15.759Z,38.77
2019-05-02T19:09:50.969Z,40.23
2019-05-02T19:12:22.245Z,37.67
2019-05-02T19:14:49.782Z,45.93
2019-05-02T19:17:21.939Z,39.43
2019-05-02T19:19:52.719Z,34.40
2019-05-02T19:22:22.946Z,39.93
2019-05-02T19:24:52.716Z,41.20
2019-05-02T19:27:42.910Z,37.80
2019-05-02T19:30:13.519Z,39.40
2019-05-02T19:32:43.620Z,36.37
2019-05-02T19:35:13.673Z,46.33
2019-05-02T19:37:47.561Z,40.70
2019-05-02T19:40:20.071Z,40.97
2019-05-02T19:43:02.432Z,43.87
2019-05-02T19:45:28.746Z,50.47
2019-05-02T19:47:59.812Z,43.10
2019-05-02T19:50:43.979Z,52.63
2019-05-02T19:53:18.108Z,53.93
2019-05-02T19:55:43.937Z,48.03
2019-05-02T19:58:13.894Z,49.13
2019-05-02T20:00:46.294Z,53.20
2019-05-02T20:03:21.762Z,53.30
2019-05-02T20:05:56.629Z,53.23
2019-05-02T20:08:24.618Z,56.47
2019-05-02T20:10:58.266Z,55.57
2019-05-02T20:13:30.629Z,51.03
2019-05-02T20:16:08.299Z,55.30
2019-05-02T20:18:45.576Z,60.43
2019-05-02T20:21:25.971Z,56.93
2019-05-02T20:23:51.787Z,58.73
2019-05-02T20:26:22.084Z,55.97
2019-05-02T20:28:52.746Z,60.77
2019-05-02T20:31:22.375Z,53.80
2019-05-02T20:33:52.089Z,60.60
2019-05-02T20:36:22.788Z,54.53
2019-05-02T20:38:52.752Z,59.30
2019-05-02T20:41:22.411Z,59.57
2019-05-02T20:43:52.065Z,56.23
2019-05-02T20:46:21.976Z,60.73
2019-05-02T20:48:52.638Z,51.57
2019-05-02T20:51:22.761Z,56.90
2019-05-02T20:53:52.709Z,52.90
2019-05-02T20:56:22.983Z,55.40
2019-05-02T20:58:53.355Z,112.90
2019-05-02T21:01:22.883Z,45.30
2019-05-02T21:03:52.312Z,46.63
2019-05-02T21:06:47.250Z,48.90
2019-05-02T21:09:45.153Z,54.03
2019-05-02T21:12:14.486Z,51.20
2019-05-02T21:14:43.800Z,44.30
2019-05-02T21:17:13.226Z,45.73
2019-05-02T21:19:42.553Z,37.73
2019-05-02T21:22:19.216Z,38.07
2019-05-02T21:24:48.998Z,37.57
2019-05-02T21:27:18.276Z,30.50
2019-05-02T21:29:47.627Z,38.40
2019-05-02T21:32:17.502Z,29.70
2019-05-02T21:34:47.259Z,28.00
2019-05-02T21:37:16.878Z,39.23
2019-05-02T21:39:47.530Z,29.37
2019-05-02T21:42:16.948Z,30.10
2019-05-02T21:44:46.191Z,36.87
2019-05-02T21:47:15.401Z,33.63
2019-05-02T21:49:56.588Z,34.93
2019-05-02T21:52:45.158Z,34.50
2019-05-02T21:55:21.905Z,37.43
2019-05-02T21:57:52.159Z,31.20
2019-05-02T22:00:42.233Z,29.57
2019-05-02T22:03:12.597Z,32.03
2019-05-02T22:05:42.386Z,31.87
2019-05-02T22:08:12.202Z,29.57
2019-05-02T22:10:42.681Z,31.27
2019-05-02T22:13:12.413Z,32.30
2019-05-02T22:15:42.123Z,25.63
2019-05-02T22:18:11.372Z,29.80
2019-05-02T22:20:42.783Z,27.50
2019-05-02T22:23:12.310Z,26.27
2019-05-02T22:25:42.009Z,31.70
2019-05-02T22:28:12.583Z,28.30
2019-05-02T22:30:42.909Z,29.93
2019-05-02T22:33:12.508Z,34.00
2019-05-02T22:35:43.377Z,28.87
2019-05-02T22:38:22.208Z,30.50
2019-05-02T22:40:53.707Z,29.37
2019-05-02T22:43:23.165Z,38.50
2019-05-02T22:45:52.572Z,32.53
2019-05-02T22:48:22.725Z,50.03
2019-05-02T22:50:52.301Z,33.63
2019-05-02T22:53:21.654Z,32.57
2019-05-02T22:55:53.209Z,35.33
2019-05-02T22:58:22.525Z,33.13
2019-05-02T23:00:52.336Z,32.47
2019-05-02T23:03:24.120Z,35.93
2019-05-02T23:05:52.764Z,36.80
2019-05-02T23:08:22.113Z,29.70
2019-05-02T23:10:51.946Z,32.90
2019-05-02T23:13:21.981Z,34.43
2019-05-02T23:15:52.338Z,28.47
2019-05-02T23:18:22.787Z,31.30
2019-05-02T23:20:52.609Z,38.43
2019-05-02T23:23:24.194Z,31.73
2019-05-02T23:26:15.097Z,32.97
2019-05-02T23:28:46.747Z,32.60
2019-05-02T23:31:16.347Z,32.43
2019-05-02T23:34:02.027Z,37.63
2019-05-02T23:36:32.870Z,38.93
2019-05-02T23:39:02.531Z,35.03
2019-05-02T23:41:32.900Z,46.83
2019-05-02T23:44:02.996Z,32.63
2019-05-02T23:46:32.296Z,34.90
2019-05-02T23:49:02.120Z,34.67
2019-05-02T23:51:32.078Z,30.50
2019-05-02T23:54:02.093Z,34.87
2019-05-02T23:56:32.505Z,33.20
2019-05-02T23:59:02.703Z,35.93
